Time;durP1;ratioP1;P1;durP2;ratioP2;P2;SDS_P1;SDS_P2;PMS_P1;PMS_P2;Temp;Humidity;BMP_temperature;BMP_pressure;BME280_temperature;BME280_humidity;BME280_pressure;Samples;Min_cycle;Max_cycle;Signal;HPM_P1;HPM_P2
2022/03/13 03:45:21;;;;;;;;;;;0.90;44.60;;;;;;6246619;22;20126;31
2022/03/13 03:47:47;;;;;;;;;;;0.90;44.50;;;;;;6259378;22;19911;-79
2022/03/13 03:50:13;;;;;;;;;;;0.90;44.50;;;;;;6234838;22;20199;-80
2022/03/13 03:52:39;;;;;;;;;;;0.90;44.40;;;;;;6209620;22;19910;-79
2022/03/13 03:55:05;;;;;;;;;;;0.90;44.40;;;;;;6234753;22;19907;-79
2022/03/13 03:57:31;;;;;;;;;;;0.90;44.70;;;;;;6234542;22;19903;-80
2022/03/13 03:59:56;;;;;;;;;;;0.90;44.40;;;;;;6260155;22;19950;-80
2022/03/13 04:02:22;;;;;;;;;;;0.90;44.30;;;;;;6209329;22;19907;-80
2022/03/13 04:04:47;;;;;;;;;;;0.90;44.30;;;;;;6209928;22;19911;-80
2022/03/13 04:07:13;;;;;;;;;;;0.90;44.30;;;;;;6234989;22;19903;-80
2022/03/13 04:09:39;;;;;;;;;;;1.00;44.20;;;;;;6235108;22;20071;-81
2022/03/13 04:12:07;;;;;;;;;;;1.00;44.10;;;;;;6234754;22;19927;-79
2022/03/13 04:14:34;;;;;;;;;;;1.00;44.00;;;;;;6260026;22;19899;-79
2022/03/13 04:16:59;;;;;;;;;;;1.00;44.10;;;;;;6209377;22;19903;-79
2022/03/13 04:19:26;;;;;;;;;;;0.90;44.20;;;;;;6234843;22;19899;-79
2022/03/13 04:21:52;;;;;;;;;;;0.90;44.20;;;;;;6259596;22;19961;-79
2022/03/13 04:24:18;;;;;;;;;;;0.90;44.30;;;;;;6209744;22;19919;-79
2022/03/13 04:26:44;;;;;;;;;;;0.80;44.50;;;;;;6209482;22;19910;-79
2022/03/13 04:29:10;;;;;;;;;;;0.80;44.50;;;;;;6209502;22;19910;-79
2022/03/13 04:31:37;;;;;;;;;;;0.80;44.50;;;;;;6234587;22;19934;-79
2022/03/13 04:34:03;;;;;;;;;;;0.80;45.20;;;;;;6235704;22;19899;-80
2022/03/13 04:36:30;;;;;;;;;;;0.70;44.70;;;;;;6238054;22;19941;-80
2022/03/13 04:38:56;;;;;;;;;;;0.70;44.90;;;;;;6237957;22;20142;-79
2022/03/13 04:41:21;;;;;;;;;;;0.70;44.90;;;;;;6237781;22;19903;-79
2022/03/13 04:43:47;;;;;;;;;;;0.60;45.00;;;;;;6212730;22;20187;-79
2022/03/13 04:46:14;;;;;;;;;;;0.60;45.10;;;;;;6212198;22;19911;-79
2022/03/13 04:48:40;;;;;;;;;;;0.60;45.20;;;;;;6238283;22;19907;-79
2022/03/13 04:51:06;;;;;;;;;;;0.60;45.30;;;;;;6237944;22;20245;-79
2022/03/13 04:53:32;;;;;;;;;;;0.60;45.30;;;;;;6237802;22;20102;-79
2022/03/13 04:55:58;;;;;;;;;;;0.50;45.30;;;;;;6237680;22;19922;-78
2022/03/13 04:58:24;;;;;;;;;;;0.50;45.60;;;;;;6263137;22;19896;-79
2022/03/13 05:00:52;;;;;;;;;;;0.50;45.60;;;;;;6263319;22;19950;-79
2022/03/13 05:03:18;;;;;;;;;;;0.50;45.50;;;;;;6237886;22;19907;-79
2022/03/13 05:05:44;;;;;;;;;;;0.50;45.50;;;;;;6237781;22;19902;-79
2022/03/13 05:08:13;;;;;;;;;;;0.60;45.50;;;;;;6263183;22;19914;-79
2022/03/13 05:10:40;;;;;;;;;;;0.50;45.40;;;;;;6237824;22;19903;-79
2022/03/13 05:13:07;;;;;;;;;;;0.50;45.50;;;;;;6237578;22;20195;-80
2022/03/13 05:15:33;;;;;;;;;;;0.50;45.70;;;;;;6262827;22;19899;-79
2022/03/13 05:18:00;;;;;;;;;;;0.50;45.60;;;;;;6237744;22;19955;-79
2022/03/13 05:20:26;;;;;;;;;;;0.50;45.50;;;;;;6263179;22;19913;-81
2022/03/13 05:22:52;;;;;;;;;;;0.50;45.70;;;;;;6262837;22;19910;-80
2022/03/13 05:25:17;;;;;;;;;;;0.50;45.60;;;;;;6237558;22;19899;-80
2022/03/13 05:27:44;;;;;;;;;;;0.50;45.60;;;;;;6247910;22;20103;-80
2022/03/13 05:30:10;;;;;;;;;;;0.60;45.70;;;;;;6237530;22;19903;-80
2022/03/13 05:32:35;;;;;;;;;;;0.50;45.70;;;;;;6237388;22;19944;-80
2022/03/13 05:35:05;;;;;;;;;;;0.60;45.60;;;;;;6262946;22;19923;-79
2022/03/13 05:37:30;;;;;;;;;;;0.60;45.60;;;;;;6237813;22;19903;-79
2022/03/13 05:39:56;;;;;;;;;;;0.60;45.60;;;;;;6275614;22;19910;-80
2022/03/13 05:42:24;;;;;;;;;;;0.70;45.60;;;;;;6237210;22;20257;-80
2022/03/13 05:44:53;;;;;;;;;;;0.70;45.70;;;;;;6237393;22;19903;-78
2022/03/13 05:47:19;;;;;;;;;;;0.70;45.50;;;;;;6260470;22;19908;-79
2022/03/13 05:49:46;;;;;;;;;;;0.80;45.70;;;;;;6235800;22;19970;-81
2022/03/13 05:52:15;;;;;;;;;;;0.90;45.60;;;;;;6235973;22;19923;-80
2022/03/13 05:54:44;;;;;;;;;;;0.90;45.70;;;;;;6236598;22;19910;-79
2022/03/13 05:57:12;;;;;;;;;;;1.00;45.50;;;;;;6235753;22;19944;-81
2022/03/13 05:59:39;;;;;;;;;;;1.10;45.40;;;;;;6261354;22;20199;-81
2022/03/13 06:02:05;;;;;;;;;;;1.10;45.20;;;;;;6261594;22;19906;-79
2022/03/13 06:04:37;;;;;;;;;;;1.10;45.20;;;;;;6235850;22;19903;-79
2022/03/13 06:07:03;;;;;;;;;;;1.30;45.20;;;;;;6261358;22;19899;-81
2022/03/13 06:09:29;;;;;;;;;;;1.30;45.00;;;;;;6235685;22;19905;-79
2022/03/13 06:11:54;;;;;;;;;;;1.40;45.00;;;;;;6235873;22;19903;-79
2022/03/13 06:14:20;;;;;;;;;;;1.50;44.80;;;;;;6235632;22;19907;-79
2022/03/13 06:16:46;;;;;;;;;;;1.60;44.60;;;;;;6261170;22;19899;-80
2022/03/13 06:19:12;;;;;;;;;;;1.70;44.30;;;;;;6235584;22;20098;-80
2022/03/13 06:21:41;;;;;;;;;;;1.80;44.20;;;;;;6235787;22;19903;-81
2022/03/13 06:24:07;;;;;;;;;;;1.80;44.10;;;;;;6235702;22;19899;-80
2022/03/13 06:26:32;;;;;;;;;;;1.90;44.00;;;;;;6261055;22;19907;-81
2022/03/13 06:28:59;;;;;;;;;;;2.00;44.10;;;;;;6235773;22;19903;-80
2022/03/13 06:31:24;;;;;;;;;;;2.00;43.80;;;;;;6235596;22;19907;-81
2022/03/13 06:33:59;;;;;;;;;;;2.10;43.80;;;;;;6260777;22;19899;-81
2022/03/13 06:36:25;;;;;;;;;;;2.20;43.70;;;;;;6288033;22;19950;-80
2022/03/13 06:38:52;;;;;;;;;;;2.30;43.60;;;;;;6235757;22;20246;-80
2022/03/13 06:41:22;;;;;;;;;;;2.40;43.40;;;;;;6235564;22;19949;-82
2022/03/13 06:43:48;;;;;;;;;;;2.40;43.30;;;;;;6235572;22;19903;-80
2022/03/13 06:46:14;;;;;;;;;;;2.50;43.20;;;;;;6234496;22;20130;-81
2022/03/13 06:48:40;;;;;;;;;;;2.60;43.00;;;;;;6235010;22;19903;-79
2022/03/13 06:51:06;;;;;;;;;;;2.60;42.80;;;;;;6235258;22;19941;-80
2022/03/13 06:53:34;;;;;;;;;;;2.80;42.60;;;;;;6234848;22;20199;-81
2022/03/13 06:56:00;;;;;;;;;;;2.90;42.40;;;;;;6260948;22;19918;-80
2022/03/13 06:58:25;;;;;;;;;;;3.00;42.30;;;;;;6235670;22;19926;-80
2022/03/13 07:00:52;;;;;;;;;;;3.10;42.10;;;;;;6235518;22;19903;-81
2022/03/13 07:03:17;;;;;;;;;;;3.20;42.10;;;;;;6235578;22;19969;-80
2022/03/13 07:05:43;;;;;;;;;;;3.30;41.90;;;;;;6235945;22;19903;-81
2022/03/13 07:08:08;;;;;;;;;;;3.40;41.90;;;;;;6237493;22;20187;-80
2022/03/13 07:10:34;;;;;;;;;;;3.50;41.60;;;;;;6251636;22;19922;-81
2022/03/13 07:13:00;;;;;;;;;;;3.60;41.20;;;;;;6243947;22;20162;-80
2022/03/13 07:15:27;;;;;;;;;;;3.70;41.20;;;;;;6263027;22;19903;-80
2022/03/13 07:17:53;;;;;;;;;;;3.70;41.20;;;;;;6238117;22;19930;-80
2022/03/13 07:20:19;;;;;;;;;;;3.80;40.80;;;;;;6238848;22;20209;-80
2022/03/13 07:22:46;;;;;;;;;;;3.90;40.80;;;;;;6238574;22;19903;-80
2022/03/13 07:25:14;;;;;;;;;;;4.00;40.80;;;;;;6238336;22;19940;-79
2022/03/13 07:27:40;;;;;;;;;;;4.10;40.60;;;;;;6237786;22;20217;-80
2022/03/13 07:30:06;;;;;;;;;;;4.20;40.00;;;;;;6234449;22;19911;-80
2022/03/13 07:32:33;;;;;;;;;;;4.30;40.20;;;;;;6234303;22;20195;-79
2022/03/13 07:34:58;;;;;;;;;;;4.40;39.90;;;;;;6259113;22;19906;-79
2022/03/13 07:37:26;;;;;;;;;;;4.50;39.70;;;;;;6259003;22;19944;-79
2022/03/13 07:39:52;;;;;;;;;;;4.70;39.80;;;;;;6233497;22;19964;-79
2022/03/13 07:42:18;;;;;;;;;;;4.80;39.70;;;;;;6258736;22;20254;-80
2022/03/13 07:44:44;;;;;;;;;;;4.90;39.00;;;;;;6232850;22;19903;-80
2022/03/13 07:47:10;;;;;;;;;;;5.10;39.00;;;;;;6257987;22;19943;-80
2022/03/13 07:49:36;;;;;;;;;;;5.20;38.50;;;;;;6233770;22;19899;-80
2022/03/13 07:52:02;;;;;;;;;;;5.40;37.90;;;;;;6262908;22;19945;-79
2022/03/13 07:54:27;;;;;;;;;;;5.50;38.00;;;;;;6234085;22;19950;-80
2022/03/13 07:56:53;;;;;;;;;;;5.70;37.50;;;;;;6259143;22;20094;-81
2022/03/13 07:59:19;;;;;;;;;;;5.80;37.50;;;;;;6259512;22;20069;-81
2022/03/13 08:01:47;;;;;;;;;;;5.90;37.40;;;;;;6233852;22;19903;-80
2022/03/13 08:04:14;;;;;;;;;;;6.00;37.00;;;;;;6234154;22;20217;-80
2022/03/13 08:06:39;;;;;;;;;;;6.20;37.20;;;;;;6234510;22;19918;-80
2022/03/13 08:09:05;;;;;;;;;;;6.30;37.00;;;;;;6233723;22;19934;-80
2022/03/13 08:11:34;;;;;;;;;;;6.40;36.50;;;;;;6229303;22;19958;-81
2022/03/13 08:14:02;;;;;;;;;;;6.50;36.70;;;;;;6252688;22;19921;-81
2022/03/13 08:16:27;;;;;;;;;;;6.60;36.60;;;;;;6256014;22;19906;-81
2022/03/13 08:18:56;;;;;;;;;;;6.70;36.10;;;;;;6246765;22;19903;-80
2022/03/13 08:21:21;;;;;;;;;;;6.80;36.10;;;;;;6222732;23;19930;-80
2022/03/13 08:23:48;;;;;;;;;;;6.90;35.70;;;;;;6173233;23;19912;-81
2022/03/13 08:26:14;;;;;;;;;;;7.00;35.40;;;;;;6173174;23;20055;-81
2022/03/13 08:28:41;;;;;;;;;;;7.10;35.80;;;;;;6197663;23;20119;-81
2022/03/13 08:31:13;;;;;;;;;;;7.20;35.70;;;;;;6197519;23;19959;-79
2022/03/13 08:33:42;;;;;;;;;;;7.30;34.70;;;;;;6174109;23;20212;-82
2022/03/13 08:36:08;;;;;;;;;;;7.40;34.80;;;;;;6197527;23;19959;-79
2022/03/13 08:38:33;;;;;;;;;;;7.60;34.70;;;;;;6197702;23;19899;-81
2022/03/13 08:40:59;;;;;;;;;;;7.60;34.70;;;;;;6197984;23;20146;-81
2022/03/13 08:43:25;;;;;;;;;;;7.70;34.40;;;;;;6192440;23;19904;-80
2022/03/13 08:45:50;;;;;;;;;;;7.70;34.20;;;;;;6121297;23;19920;-80
2022/03/13 08:48:16;;;;;;;;;;;7.80;34.10;;;;;;6171528;23;20191;-80
2022/03/13 08:50:42;;;;;;;;;;;7.90;33.90;;;;;;6171800;23;19990;-81
2022/03/13 08:53:08;;;;;;;;;;;8.00;34.00;;;;;;6222130;23;19900;-82
2022/03/13 08:55:34;;;;;;;;;;;8.10;33.60;;;;;;6252344;23;19895;-82
2022/03/13 08:58:00;;;;;;;;;;;8.20;33.70;;;;;;6200386;23;20258;-81
2022/03/13 09:00:27;;;;;;;;;;;8.30;32.90;;;;;;6223215;23;19911;-81
2022/03/13 09:02:53;;;;;;;;;;;8.50;32.50;;;;;;6252555;23;20306;-80
2022/03/13 09:05:20;;;;;;;;;;;8.50;32.70;;;;;;6227210;23;19903;-81
2022/03/13 09:07:46;;;;;;;;;;;8.70;32.50;;;;;;6201805;23;20142;-81
2022/03/13 09:10:12;;;;;;;;;;;8.80;32.70;;;;;;6201994;23;20191;-80
2022/03/13 09:12:38;;;;;;;;;;;9.00;31.90;;;;;;6252255;23;19949;-82
2022/03/13 09:15:05;;;;;;;;;;;9.00;31.70;;;;;;6245862;22;19899;-81
2022/03/13 09:17:31;;;;;;;;;;;9.00;31.50;;;;;;6288777;22;19933;-81
2022/03/13 09:19:58;;;;;;;;;;;9.10;31.70;;;;;;6263806;22;20190;-81
2022/03/13 09:22:30;;;;;;;;;;;9.20;31.80;;;;;;6265388;22;20257;-80
2022/03/13 09:24:59;;;;;;;;;;;9.30;31.60;;;;;;6266231;22;19953;-82
2022/03/13 09:27:31;;;;;;;;;;;9.40;31.00;;;;;;6265312;22;19895;-81
2022/03/13 09:29:57;;;;;;;;;;;9.50;30.90;;;;;;6291264;22;19899;-82
2022/03/13 09:32:24;;;;;;;;;;;9.40;31.20;;;;;;6265813;22;19909;-82
2022/03/13 09:34:50;;;;;;;;;;;9.30;30.90;;;;;;6266058;22;19945;-82
2022/03/13 09:37:17;;;;;;;;;;;9.50;31.10;;;;;;6291096;22;19898;-79
2022/03/13 09:39:43;;;;;;;;;;;9.50;31.00;;;;;;6265459;22;19925;-82
2022/03/13 09:42:08;;;;;;;;;;;9.50;31.00;;;;;;6265747;22;19915;-81
2022/03/13 09:44:34;;;;;;;;;;;9.60;31.10;;;;;;6291486;22;19898;-82
2022/03/13 09:47:02;;;;;;;;;;;9.70;30.60;;;;;;6270630;22;19942;-82
2022/03/13 09:49:28;;;;;;;;;;;9.70;30.80;;;;;;6234213;22;19899;-81
2022/03/13 09:51:54;;;;;;;;;;;9.70;30.70;;;;;;6262025;22;19899;-82
2022/03/13 09:54:19;;;;;;;;;;;9.80;30.60;;;;;;6255936;22;19895;-82
2022/03/13 09:56:46;;;;;;;;;;;9.80;30.10;;;;;;6236023;22;20195;-81
2022/03/13 09:59:11;;;;;;;;;;;9.80;30.50;;;;;;6260699;22;19906;-81
2022/03/13 10:01:38;;;;;;;;;;;10.10;30.70;;;;;;6235266;22;20129;-82
2022/03/13 10:04:04;;;;;;;;;;;10.30;30.30;;;;;;6235396;22;19950;-83
2022/03/13 10:06:30;;;;;;;;;;;10.40;30.20;;;;;;6210408;22;19919;-83
2022/03/13 10:08:55;;;;;;;;;;;10.40;30.20;;;;;;6235801;22;19934;-82
2022/03/13 10:11:31;;;;;;;;;;;10.30;29.70;;;;;;6235670;22;19911;-81
2022/03/13 10:14:05;;;;;;;;;;;10.40;30.30;;;;;;6261201;22;19899;-81
2022/03/13 10:16:35;;;;;;;;;;;10.50;29.90;;;;;;6260703;22;19961;-82
2022/03/13 10:19:14;;;;;;;;;;;10.60;29.90;;;;;;6260442;22;19922;-81
2022/03/13 10:21:58;;;;;;;;;;;10.70;30.70;;;;;;6255485;22;19955;-81
2022/03/13 10:24:24;;;;;;;;;;;10.60;29.80;;;;;;6260762;22;19903;-81
2022/03/13 10:26:54;;;;;;;;;;;10.60;29.60;;;;;;6235088;22;20194;-81
2022/03/13 10:29:30;;;;;;;;;;;10.60;29.30;;;;;;6260540;22;19899;-81
2022/03/13 10:31:58;;;;;;;;;;;10.60;29.80;;;;;;6260025;22;20187;-81
2022/03/13 10:34:24;;;;;;;;;;;10.70;29.70;;;;;;6260405;22;19946;-82
2022/03/13 10:36:50;;;;;;;;;;;10.80;30.30;;;;;;6236753;22;19922;-82
2022/03/13 10:39:20;;;;;;;;;;;11.00;29.70;;;;;;6233617;22;20191;-82
2022/03/13 10:41:50;;;;;;;;;;;11.20;30.00;;;;;;6262294;22;19899;-82
2022/03/13 10:44:21;;;;;;;;;;;11.20;29.00;;;;;;6260926;22;19899;-82
2022/03/13 10:47:05;;;;;;;;;;;11.10;28.90;;;;;;6277236;22;19907;-81
2022/03/13 10:49:40;;;;;;;;;;;11.00;29.10;;;;;;6265271;22;19899;-82
2022/03/13 10:52:27;;;;;;;;;;;11.20;29.60;;;;;;6265277;22;19906;-81
2022/03/13 10:54:53;;;;;;;;;;;11.40;29.50;;;;;;6290233;22;19906;-81
2022/03/13 10:57:19;;;;;;;;;;;11.50;29.40;;;;;;6240129;22;20191;-82
2022/03/13 10:59:45;;;;;;;;;;;11.50;29.50;;;;;;6265092;22;19906;-81
2022/03/13 11:02:24;;;;;;;;;;;11.60;29.50;;;;;;6264839;22;19899;-81
2022/03/13 11:04:51;;;;;;;;;;;11.60;30.00;;;;;;6265584;22;19930;-81
2022/03/13 11:07:18;;;;;;;;;;;11.90;29.20;;;;;;6290554;22;19951;-81
2022/03/13 11:09:43;;;;;;;;;;;12.00;29.20;;;;;;6290313;22;19944;-81
2022/03/13 11:12:17;;;;;;;;;;;11.90;29.40;;;;;;6264751;22;19958;-81
2022/03/13 11:14:44;;;;;;;;;;;12.00;28.80;;;;;;6265358;22;19985;-82
2022/03/13 11:17:11;;;;;;;;;;;12.10;28.90;;;;;;6264968;22;19982;-82
2022/03/13 11:19:38;;;;;;;;;;;12.10;29.20;;;;;;6265197;22;19898;-82
2022/03/13 11:22:04;;;;;;;;;;;12.20;29.10;;;;;;6265045;22;19952;-82
2022/03/13 11:24:29;;;;;;;;;;;12.40;29.30;;;;;;6265085;22;19906;-82
2022/03/13 11:26:56;;;;;;;;;;;12.40;28.60;;;;;;6265132;22;19910;-82
2022/03/13 11:29:41;;;;;;;;;;;12.30;29.00;;;;;;6290220;22;19899;-82
2022/03/13 11:32:25;;;;;;;;;;;12.20;28.80;;;;;;6290182;22;20191;-83
2022/03/13 11:35:21;;;;;;;;;;;12.30;29.00;;;;;;6261313;22;19960;-83
2022/03/13 11:37:52;;;;;;;;;;;12.50;28.60;;;;;;6223376;23;19900;-83
2022/03/13 11:40:31;;;;;;;;;;;12.30;28.70;;;;;;6173280;23;19900;-83
2022/03/13 11:43:08;;;;;;;;;;;12.30;29.00;;;;;;6185644;23;19926;-82
2022/03/13 11:45:35;;;;;;;;;;;12.50;28.70;;;;;;6197889;23;20093;-82
2022/03/13 11:48:19;;;;;;;;;;;12.50;28.60;;;;;;6173042;23;19915;-83
2022/03/13 11:50:48;;;;;;;;;;;12.50;28.90;;;;;;6198239;23;19900;-83
2022/03/13 11:53:15;;;;;;;;;;;12.60;28.80;;;;;;6174201;23;19904;-82
2022/03/13 11:55:59;;;;;;;;;;;12.60;28.40;;;;;;6198460;23;19971;-83
2022/03/13 11:58:43;;;;;;;;;;;12.60;28.50;;;;;;6173165;23;20234;-83
2022/03/13 12:01:11;;;;;;;;;;;12.70;28.70;;;;;;6163419;23;19907;-83
2022/03/13 12:03:38;;;;;;;;;;;12.70;28.30;;;;;;6197882;23;19924;-83
2022/03/13 12:06:04;;;;;;;;;;;12.80;28.70;;;;;;6173332;23;19924;-83
2022/03/13 12:08:49;;;;;;;;;;;12.90;28.60;;;;;;6198163;23;19946;-83
2022/03/13 12:11:38;;;;;;;;;;;13.00;28.10;;;;;;6164352;23;20184;-83
2022/03/13 12:14:07;;;;;;;;;;;13.10;27.90;;;;;;6191417;22;19922;-83
2022/03/13 12:16:32;;;;;;;;;;;12.80;27.90;;;;;;6259394;22;19907;-82
2022/03/13 12:18:59;;;;;;;;;;;12.90;27.80;;;;;;6234055;22;20015;-83
2022/03/13 12:21:25;;;;;;;;;;;13.00;28.30;;;;;;6259892;22;19899;-83
2022/03/13 12:23:52;;;;;;;;;;;13.20;28.00;;;;;;6259242;22;19914;-83
2022/03/13 12:26:28;;;;;;;;;;;13.30;27.30;;;;;;6234379;22;19911;-83
2022/03/13 12:28:57;;;;;;;;;;;13.20;28.00;;;;;;6259756;22;19899;-83
2022/03/13 12:31:23;;;;;;;;;;;13.30;27.90;;;;;;6242204;22;19928;-83
2022/03/13 12:33:50;;;;;;;;;;;13.50;27.80;;;;;;6221645;23;19896;-83
2022/03/13 12:36:16;;;;;;;;;;;13.60;27.20;;;;;;6197390;23;20215;-82
2022/03/13 12:38:45;;;;;;;;;;;13.60;27.00;;;;;;6223043;23;19949;-82
2022/03/13 12:41:11;;;;;;;;;;;13.40;27.30;;;;;;6197940;23;19904;-83
2022/03/13 12:43:58;;;;;;;;;;;13.40;27.40;;;;;;6223149;23;19903;-83
2022/03/13 12:46:26;;;;;;;;;;;13.50;27.50;;;;;;6168717;23;20200;-83
2022/03/13 12:48:53;;;;;;;;;;;13.60;26.90;;;;;;6192631;23;19927;-83
2022/03/13 12:51:35;;;;;;;;;;;13.50;27.30;;;;;;6192875;23;19900;-83
2022/03/13 12:54:06;;;;;;;;;;;13.50;26.90;;;;;;6191882;23;20152;-83
2022/03/13 12:56:33;;;;;;;;;;;13.60;27.30;;;;;;6194024;23;19931;-83
2022/03/13 12:58:58;;;;;;;;;;;13.60;27.10;;;;;;6144840;23;19950;-83
2022/03/13 13:01:24;;;;;;;;;;;13.70;27.20;;;;;;6173178;23;20120;-83
2022/03/13 13:03:51;;;;;;;;;;;13.90;27.20;;;;;;6150498;23;19908;-82
2022/03/13 13:06:30;;;;;;;;;;;13.90;26.80;;;;;;6175390;23;19958;-82
2022/03/13 13:08:55;;;;;;;;;;;13.90;26.70;;;;;;6199168;23;19899;-83
2022/03/13 13:11:28;;;;;;;;;;;14.00;26.70;;;;;;6199311;23;19903;-83
2022/03/13 13:13:57;;;;;;;;;;;14.10;26.50;;;;;;6175902;23;19899;-83
2022/03/13 13:16:24;;;;;;;;;;;14.10;26.80;;;;;;6200461;23;19907;-84
2022/03/13 13:18:49;;;;;;;;;;;14.10;26.40;;;;;;6200662;23;20186;-83
2022/03/13 13:21:15;;;;;;;;;;;14.00;26.90;;;;;;6151794;23;19931;-84
2022/03/13 13:23:41;;;;;;;;;;;14.10;26.90;;;;;;6230359;22;19904;-83
2022/03/13 13:26:06;;;;;;;;;;;14.10;26.70;;;;;;6261176;22;19910;-84
2022/03/13 13:28:32;;;;;;;;;;;14.20;26.50;;;;;;6266775;22;20132;-84
2022/03/13 13:30:58;;;;;;;;;;;14.20;26.00;;;;;;6292110;22;19902;-84
2022/03/13 13:33:28;;;;;;;;;;;14.20;26.40;;;;;;6319333;22;19905;-83
2022/03/13 13:35:54;;;;;;;;;;;14.30;26.80;;;;;;6266166;22;19942;-83
2022/03/13 13:38:26;;;;;;;;;;;14.60;26.40;;;;;;6291325;22;19906;-83
2022/03/13 13:40:52;;;;;;;;;;;14.80;26.10;;;;;;6291653;22;19899;-83
2022/03/13 13:43:20;;;;;;;;;;;14.90;25.70;;;;;;6291279;22;19906;-83
2022/03/13 13:45:49;;;;;;;;;;;14.80;26.10;;;;;;6291052;22;19907;-84
2022/03/13 13:48:16;;;;;;;;;;;14.80;25.80;;;;;;6266792;22;19899;-85
2022/03/13 13:50:43;;;;;;;;;;;14.60;25.40;;;;;;6291884;22;19899;-84
2022/03/13 13:53:09;;;;;;;;;;;14.50;25.90;;;;;;6292128;22;19907;-83
2022/03/13 13:55:37;;;;;;;;;;;14.50;26.00;;;;;;6266225;22;19906;-83
2022/03/13 13:58:18;;;;;;;;;;;14.50;26.10;;;;;;6286804;22;20147;-83
2022/03/13 14:00:45;;;;;;;;;;;14.70;25.90;;;;;;6291356;22;19898;-84
2022/03/13 14:03:10;;;;;;;;;;;14.80;26.70;;;;;;6265503;22;19910;-84
2022/03/13 14:05:36;;;;;;;;;;;14.80;25.70;;;;;;6265400;22;20225;-84
2022/03/13 14:08:02;;;;;;;;;;;14.70;25.90;;;;;;6239882;22;20080;-84
2022/03/13 14:10:28;;;;;;;;;;;14.70;25.80;;;;;;6241200;22;19909;-84
2022/03/13 14:12:55;;;;;;;;;;;14.70;26.00;;;;;;6291965;22;19906;-84
2022/03/13 14:15:24;;;;;;;;;;;14.70;25.50;;;;;;6266457;22;20080;-84
2022/03/13 14:17:49;;;;;;;;;;;14.70;25.80;;;;;;6292311;22;19937;-84
2022/03/13 14:20:15;;;;;;;;;;;14.70;25.80;;;;;;6267342;22;19910;-83
2022/03/13 14:22:47;;;;;;;;;;;14.60;25.80;;;;;;6260105;22;20102;-85
2022/03/13 14:25:16;;;;;;;;;;;14.50;25.70;;;;;;6285094;22;19907;-83
2022/03/13 14:27:42;;;;;;;;;;;14.40;26.20;;;;;;6290671;22;19910;-82
2022/03/13 14:30:08;;;;;;;;;;;14.50;26.20;;;;;;6264561;22;19910;-83
2022/03/13 14:32:33;;;;;;;;;;;14.60;26.00;;;;;;6239730;22;19914;-83
2022/03/13 14:34:59;;;;;;;;;;;14.60;26.10;;;;;;6240557;22;19903;-84
2022/03/13 14:37:25;;;;;;;;;;;14.60;25.90;;;;;;6293264;22;20191;-83
2022/03/13 14:39:51;;;;;;;;;;;14.80;26.00;;;;;;6240844;22;19899;-83
2022/03/13 14:42:17;;;;;;;;;;;14.80;26.10;;;;;;6265679;22;19911;-84
2022/03/13 14:44:43;;;;;;;;;;;14.80;26.10;;;;;;6265053;22;19916;-83
2022/03/13 14:47:09;;;;;;;;;;;14.90;25.90;;;;;;6266715;22;19933;-83
2022/03/13 14:49:34;;;;;;;;;;;14.80;25.90;;;;;;6287523;22;19907;-84
2022/03/13 14:52:00;;;;;;;;;;;14.70;25.70;;;;;;6261078;22;19899;-84
2022/03/13 14:54:26;;;;;;;;;;;14.70;25.80;;;;;;6266409;22;19934;-84
2022/03/13 14:56:52;;;;;;;;;;;14.70;25.50;;;;;;6291452;22;19921;-84
2022/03/13 14:59:18;;;;;;;;;;;14.70;25.70;;;;;;6291897;22;19929;-84
2022/03/13 15:01:46;;;;;;;;;;;14.70;25.60;;;;;;6265785;22;19952;-84
2022/03/13 15:04:12;;;;;;;;;;;14.70;26.00;;;;;;6317638;22;19962;-83
2022/03/13 15:06:38;;;;;;;;;;;14.60;25.90;;;;;;6291099;22;20209;-84
2022/03/13 15:09:07;;;;;;;;;;;14.80;26.10;;;;;;6265163;22;19902;-83
2022/03/13 15:11:34;;;;;;;;;;;14.80;25.90;;;;;;6267931;22;19899;-84
2022/03/13 15:14:03;;;;;;;;;;;14.90;26.20;;;;;;6266568;22;19940;-83
2022/03/13 15:16:35;;;;;;;;;;;15.00;25.90;;;;;;6264650;22;19907;-83
2022/03/13 15:19:01;;;;;;;;;;;15.00;26.10;;;;;;6264965;22;19914;-84
2022/03/13 15:21:27;;;;;;;;;;;15.00;26.00;;;;;;6260355;22;19930;-84
2022/03/13 15:23:52;;;;;;;;;;;15.10;25.80;;;;;;6240506;22;19935;-85
2022/03/13 15:26:18;;;;;;;;;;;15.00;26.00;;;;;;6264970;22;19903;-84
2022/03/13 15:28:44;;;;;;;;;;;14.90;26.00;;;;;;6265888;22;19910;-85
2022/03/13 15:31:09;;;;;;;;;;;14.70;26.00;;;;;;6264960;22;19907;-85
2022/03/13 15:33:35;;;;;;;;;;;14.50;26.10;;;;;;6290442;22;19906;-85
2022/03/13 15:36:01;;;;;;;;;;;14.50;26.10;;;;;;6265012;22;19946;-84
2022/03/13 15:38:26;;;;;;;;;;;14.40;26.30;;;;;;6265771;22;19910;-84
2022/03/13 15:40:52;;;;;;;;;;;14.30;26.30;;;;;;6264923;22;19953;-83
2022/03/13 15:43:22;;;;;;;;;;;14.30;26.30;;;;;;6290909;22;19933;-83
2022/03/13 15:45:48;;;;;;;;;;;14.30;26.30;;;;;;6284921;22;19914;-83
2022/03/13 15:48:14;;;;;;;;;;;14.30;26.80;;;;;;6259294;22;19910;-84
2022/03/13 15:50:40;;;;;;;;;;;14.30;26.30;;;;;;6209077;22;19935;-83
2022/03/13 15:53:06;;;;;;;;;;;14.30;26.30;;;;;;6209105;22;19906;-84
2022/03/13 15:55:32;;;;;;;;;;;14.30;26.40;;;;;;6258642;22;19911;-83
2022/03/13 15:57:58;;;;;;;;;;;14.20;26.20;;;;;;6234132;22;20203;-84
2022/03/13 16:00:24;;;;;;;;;;;14.00;26.20;;;;;;6234738;22;19930;-84
2022/03/13 16:02:50;;;;;;;;;;;13.80;26.40;;;;;;6261049;22;19934;-84
2022/03/13 16:05:19;;;;;;;;;;;13.40;26.70;;;;;;6259788;22;19900;-83
2022/03/13 16:07:48;;;;;;;;;;;13.10;27.00;;;;;;6259630;22;19906;-83
2022/03/13 16:10:14;;;;;;;;;;;12.80;27.30;;;;;;6233237;22;19922;-84
2022/03/13 16:12:41;;;;;;;;;;;12.60;27.30;;;;;;6233775;22;19965;-84
2022/03/13 16:15:08;;;;;;;;;;;12.50;27.50;;;;;;6222326;23;19967;-85
2022/03/13 16:17:35;;;;;;;;;;;12.30;27.60;;;;;;6192990;23;19904;-83
2022/03/13 16:20:01;;;;;;;;;;;12.20;27.70;;;;;;6197413;23;19931;-83
2022/03/13 16:22:28;;;;;;;;;;;12.10;27.90;;;;;;6222649;23;19923;-84
2022/03/13 16:24:55;;;;;;;;;;;12.00;27.70;;;;;;6221652;23;19927;-83
2022/03/13 16:27:21;;;;;;;;;;;11.90;27.90;;;;;;6222758;23;20557;-83
2022/03/13 16:29:47;;;;;;;;;;;11.80;28.00;;;;;;6196796;23;19927;-84
2022/03/13 16:32:14;;;;;;;;;;;11.70;27.70;;;;;;6222675;23;20073;-83
2022/03/13 16:34:42;;;;;;;;;;;11.60;27.70;;;;;;6222625;23;19908;-83
2022/03/13 16:37:09;;;;;;;;;;;11.50;27.70;;;;;;6197343;23;20238;-83
2022/03/13 16:39:36;;;;;;;;;;;11.50;27.90;;;;;;6196817;23;19900;-84
2022/03/13 16:42:02;;;;;;;;;;;11.40;27.90;;;;;;6221918;23;19907;-84
2022/03/13 16:44:28;;;;;;;;;;;11.30;28.00;;;;;;6221822;23;19904;-83
2022/03/13 16:46:54;;;;;;;;;;;11.20;28.20;;;;;;6247518;22;20141;-84
2022/03/13 16:49:20;;;;;;;;;;;11.20;28.30;;;;;;6289595;22;20255;-83
2022/03/13 16:51:46;;;;;;;;;;;11.10;28.10;;;;;;6263954;22;19911;-83
2022/03/13 16:54:12;;;;;;;;;;;11.00;28.40;;;;;;6263909;22;20128;-84
2022/03/13 16:56:40;;;;;;;;;;;11.00;28.40;;;;;;6263689;22;19911;-84
2022/03/13 16:59:07;;;;;;;;;;;11.00;28.50;;;;;;6263655;22;20384;-84
2022/03/13 17:01:32;;;;;;;;;;;10.90;28.50;;;;;;6289306;22;20090;-84
2022/03/13 17:03:59;;;;;;;;;;;10.80;28.60;;;;;;6263828;22;19911;-84
2022/03/13 17:06:25;;;;;;;;;;;10.70;28.60;;;;;;6263947;22;19914;-84
2022/03/13 17:08:51;;;;;;;;;;;10.60;28.70;;;;;;6316493;22;19911;-83
2022/03/13 17:11:17;;;;;;;;;;;10.60;28.70;;;;;;6260610;22;19903;-83
2022/03/13 17:13:43;;;;;;;;;;;10.50;28.80;;;;;;6288295;22;19906;-83
2022/03/13 17:16:09;;;;;;;;;;;10.40;28.90;;;;;;6263329;22;19903;-84
2022/03/13 17:18:36;;;;;;;;;;;10.30;29.00;;;;;;6263418;22;19903;-83
2022/03/13 17:21:03;;;;;;;;;;;10.30;29.10;;;;;;6263477;22;20349;-82
2022/03/13 17:23:29;;;;;;;;;;;10.20;29.10;;;;;;6263600;22;19899;-83
2022/03/13 17:25:54;;;;;;;;;;;10.20;29.00;;;;;;6289274;22;19963;-84
2022/03/13 17:28:21;;;;;;;;;;;10.10;29.10;;;;;;6264024;22;19902;-83
2022/03/13 17:30:48;;;;;;;;;;;10.10;29.30;;;;;;6263733;22;19958;-83
2022/03/13 17:33:14;;;;;;;;;;;10.00;29.30;;;;;;6289508;22;19894;-83
2022/03/13 17:35:40;;;;;;;;;;;9.90;29.20;;;;;;6263875;22;19903;-83
2022/03/13 17:38:05;;;;;;;;;;;9.90;29.30;;;;;;6263871;22;20103;-83
2022/03/13 17:40:31;;;;;;;;;;;9.90;29.50;;;;;;6263637;22;20129;-84
2022/03/13 17:42:57;;;;;;;;;;;9.80;29.30;;;;;;6265367;22;19914;-84
2022/03/13 17:45:24;;;;;;;;;;;9.80;29.40;;;;;;6264808;22;19903;-83
2022/03/13 17:47:50;;;;;;;;;;;9.70;29.50;;;;;;6291256;22;19907;-84
2022/03/13 17:50:16;;;;;;;;;;;9.70;29.60;;;;;;6265564;22;19926;-83
2022/03/13 17:52:42;;;;;;;;;;;9.60;29.50;;;;;;6291239;22;19898;-83
2022/03/13 17:55:08;;;;;;;;;;;9.60;29.60;;;;;;6291015;22;19937;-82
2022/03/13 17:57:33;;;;;;;;;;;9.50;29.60;;;;;;6265054;22;19906;-82
2022/03/13 17:59:59;;;;;;;;;;;9.50;29.40;;;;;;6291186;22;19903;-82
2022/03/13 18:02:25;;;;;;;;;;;9.50;29.40;;;;;;6291843;22;19905;-82
2022/03/13 18:04:51;;;;;;;;;;;9.50;29.40;;;;;;6267953;22;19913;-82
2022/03/13 18:07:17;;;;;;;;;;;9.40;29.50;;;;;;6263062;22;19910;-82
2022/03/13 18:09:43;;;;;;;;;;;9.40;29.60;;;;;;6266454;22;20187;-83